sensor_id;sensor_type;location;lat;lon;timestamp;temperature;humidity
17399;DHT22;8817;48.170;8.592;2022-10-26T00:00:43;18.00;54.50
17399;DHT22;8817;48.170;8.592;2022-10-26T00:03:11;18.00;54.60
17399;DHT22;8817;48.170;8.592;2022-10-26T00:05:37;18.00;54.60
17399;DHT22;8817;48.170;8.592;2022-10-26T00:08:05;18.00;54.60
17399;DHT22;8817;48.170;8.592;2022-10-26T00:10:35;18.00;54.60
17399;DHT22;8817;48.170;8.592;2022-10-26T00:13:02;18.00;54.70
17399;DHT22;8817;48.170;8.592;2022-10-26T00:15:30;18.00;54.70
17399;DHT22;8817;48.170;8.592;2022-10-26T00:17:57;18.00;54.70
17399;DHT22;8817;48.170;8.592;2022-10-26T00:20:24;18.00;54.70
17399;DHT22;8817;48.170;8.592;2022-10-26T00:22:51;18.00;54.70
17399;DHT22;8817;48.170;8.592;2022-10-26T00:25:18;18.00;54.70
17399;DHT22;8817;48.170;8.592;2022-10-26T00:27:46;18.00;54.70
17399;DHT22;8817;48.170;8.592;2022-10-26T00:30:13;18.10;54.80
17399;DHT22;8817;48.170;8.592;2022-10-26T00:32:40;18.10;54.70
17399;DHT22;8817;48.170;8.592;2022-10-26T00:35:07;18.10;54.80
17399;DHT22;8817;48.170;8.592;2022-10-26T00:37:34;18.10;54.80
17399;DHT22;8817;48.170;8.592;2022-10-26T00:40:01;18.10;54.80
17399;DHT22;8817;48.170;8.592;2022-10-26T00:42:28;18.10;54.80
17399;DHT22;8817;48.170;8.592;2022-10-26T00:44:58;18.10;54.80
17399;DHT22;8817;48.170;8.592;2022-10-26T00:47:33;18.10;54.80
17399;DHT22;8817;48.170;8.592;2022-10-26T00:50:04;18.10;54.80
17399;DHT22;8817;48.170;8.592;2022-10-26T00:52:32;18.20;54.80
17399;DHT22;8817;48.170;8.592;2022-10-26T00:55:00;18.10;54.70
17399;DHT22;8817;48.170;8.592;2022-10-26T00:57:27;18.10;54.80
17399;DHT22;8817;48.170;8.592;2022-10-26T00:59:56;18.20;54.70
17399;DHT22;8817;48.170;8.592;2022-10-26T01:02:24;18.10;54.70
17399;DHT22;8817;48.170;8.592;2022-10-26T01:04:52;18.10;54.70
17399;DHT22;8817;48.170;8.592;2022-10-26T01:07:20;18.10;54.70
17399;DHT22;8817;48.170;8.592;2022-10-26T01:09:47;18.10;54.70
17399;DHT22;8817;48.170;8.592;2022-10-26T01:12:14;18.10;54.70
17399;DHT22;8817;48.170;8.592;2022-10-26T01:14:42;18.00;54.70
17399;DHT22;8817;48.170;8.592;2022-10-26T01:17:26;18.00;55.30
17399;DHT22;8817;48.170;8.592;2022-10-26T01:20:20;18.00;54.70
17399;DHT22;8817;48.170;8.592;2022-10-26T01:22:56;18.00;54.70
17399;DHT22;8817;48.170;8.592;2022-10-26T01:25:40;18.00;54.70
17399;DHT22;8817;48.170;8.592;2022-10-26T01:28:17;18.00;54.80
17399;DHT22;8817;48.170;8.592;2022-10-26T01:30:47;18.00;54.80
17399;DHT22;8817;48.170;8.592;2022-10-26T01:33:30;18.00;54.80
17399;DHT22;8817;48.170;8.592;2022-10-26T01:36:06;18.00;54.80
17399;DHT22;8817;48.170;8.592;2022-10-26T01:38:42;18.00;54.80
17399;DHT22;8817;48.170;8.592;2022-10-26T01:41:16;18.00;54.80
17399;DHT22;8817;48.170;8.592;2022-10-26T01:43:49;18.00;54.80
17399;DHT22;8817;48.170;8.592;2022-10-26T01:46:21;18.00;54.80
17399;DHT22;8817;48.170;8.592;2022-10-26T01:48:51;18.00;54.70
17399;DHT22;8817;48.170;8.592;2022-10-26T01:51:21;17.90;54.60
17399;DHT22;8817;48.170;8.592;2022-10-26T01:53:49;17.90;54.60
17399;DHT22;8817;48.170;8.592;2022-10-26T01:56:18;17.90;54.70
17399;DHT22;8817;48.170;8.592;2022-10-26T01:59:18;17.90;54.70
17399;DHT22;8817;48.170;8.592;2022-10-26T02:02:25;17.80;54.80
17399;DHT22;8817;48.170;8.592;2022-10-26T02:05:08;17.80;54.80
17399;DHT22;8817;48.170;8.592;2022-10-26T02:07:41;17.80;55.40
17399;DHT22;8817;48.170;8.592;2022-10-26T02:10:17;17.80;54.80
17399;DHT22;8817;48.170;8.592;2022-10-26T02:12:53;17.80;54.90
17399;DHT22;8817;48.170;8.592;2022-10-26T02:15:30;17.80;55.00
17399;DHT22;8817;48.170;8.592;2022-10-26T02:18:04;17.80;54.90
17399;DHT22;8817;48.170;8.592;2022-10-26T02:20:37;17.80;54.90
17399;DHT22;8817;48.170;8.592;2022-10-26T02:23:07;17.80;55.00
17399;DHT22;8817;48.170;8.592;2022-10-26T02:25:38;17.90;55.00
17399;DHT22;8817;48.170;8.592;2022-10-26T02:28:08;17.80;55.00
17399;DHT22;8817;48.170;8.592;2022-10-26T02:30:38;17.90;55.60
17399;DHT22;8817;48.170;8.592;2022-10-26T02:33:09;17.90;55.60
17399;DHT22;8817;48.170;8.592;2022-10-26T02:35:40;17.80;55.00
17399;DHT22;8817;48.170;8.592;2022-10-26T02:38:10;17.80;55.00
17399;DHT22;8817;48.170;8.592;2022-10-26T02:40:38;17.90;55.00
17399;DHT22;8817;48.170;8.592;2022-10-26T02:43:08;17.80;55.00
17399;DHT22;8817;48.170;8.592;2022-10-26T02:45:38;17.80;55.00
17399;DHT22;8817;48.170;8.592;2022-10-26T02:48:10;17.90;55.10
17399;DHT22;8817;48.170;8.592;2022-10-26T02:50:49;17.80;55.00
17399;DHT22;8817;48.170;8.592;2022-10-26T02:53:23;17.80;55.10
17399;DHT22;8817;48.170;8.592;2022-10-26T02:55:51;17.90;55.70
17399;DHT22;8817;48.170;8.592;2022-10-26T02:58:22;17.90;55.10
17399;DHT22;8817;48.170;8.592;2022-10-26T03:00:51;17.90;55.10
17399;DHT22;8817;48.170;8.592;2022-10-26T03:03:20;17.90;55.10
17399;DHT22;8817;48.170;8.592;2022-10-26T03:05:48;17.90;55.10
17399;DHT22;8817;48.170;8.592;2022-10-26T03:08:15;17.90;55.10
17399;DHT22;8817;48.170;8.592;2022-10-26T03:10:43;17.90;55.00
17399;DHT22;8817;48.170;8.592;2022-10-26T03:13:12;17.90;55.00
17399;DHT22;8817;48.170;8.592;2022-10-26T03:15:39;17.90;55.00
17399;DHT22;8817;48.170;8.592;2022-10-26T03:18:06;17.90;55.10
17399;DHT22;8817;48.170;8.592;2022-10-26T03:20:35;17.90;55.10
17399;DHT22;8817;48.170;8.592;2022-10-26T03:23:02;17.90;55.10
17399;DHT22;8817;48.170;8.592;2022-10-26T03:25:29;17.90;55.10
17399;DHT22;8817;48.170;8.592;2022-10-26T03:27:56;17.90;55.10
17399;DHT22;8817;48.170;8.592;2022-10-26T03:30:23;17.90;55.10
17399;DHT22;8817;48.170;8.592;2022-10-26T03:32:50;17.90;55.10
17399;DHT22;8817;48.170;8.592;2022-10-26T03:35:17;17.90;55.10
17399;DHT22;8817;48.170;8.592;2022-10-26T03:37:46;17.90;55.10
17399;DHT22;8817;48.170;8.592;2022-10-26T03:40:13;17.90;55.10
17399;DHT22;8817;48.170;8.592;2022-10-26T03:42:40;17.90;55.10
17399;DHT22;8817;48.170;8.592;2022-10-26T03:45:08;17.90;55.10
17399;DHT22;8817;48.170;8.592;2022-10-26T03:47:42;17.90;55.10
17399;DHT22;8817;48.170;8.592;2022-10-26T03:50:10;17.90;55.10
17399;DHT22;8817;48.170;8.592;2022-10-26T03:52:37;17.80;55.00
17399;DHT22;8817;48.170;8.592;2022-10-26T03:55:06;17.90;55.10
17399;DHT22;8817;48.170;8.592;2022-10-26T03:57:33;17.80;55.10
17399;DHT22;8817;48.170;8.592;2022-10-26T04:00:00;17.80;55.10
17399;DHT22;8817;48.170;8.592;2022-10-26T04:02:27;17.80;55.10
17399;DHT22;8817;48.170;8.592;2022-10-26T04:04:54;17.80;55.10
17399;DHT22;8817;48.170;8.592;2022-10-26T04:07:21;17.80;55.10
17399;DHT22;8817;48.170;8.592;2022-10-26T04:09:48;17.80;55.20
17399;DHT22;8817;48.170;8.592;2022-10-26T04:12:16;17.80;55.20
17399;DHT22;8817;48.170;8.592;2022-10-26T04:14:43;17.70;55.20
17399;DHT22;8817;48.170;8.592;2022-10-26T04:17:10;17.70;55.20
17399;DHT22;8817;48.170;8.592;2022-10-26T04:19:37;17.70;55.20
17399;DHT22;8817;48.170;8.592;2022-10-26T04:22:04;17.70;55.30
17399;DHT22;8817;48.170;8.592;2022-10-26T04:24:31;17.70;55.30
17399;DHT22;8817;48.170;8.592;2022-10-26T04:26:58;17.70;55.30
17399;DHT22;8817;48.170;8.592;2022-10-26T04:29:26;17.70;55.30
17399;DHT22;8817;48.170;8.592;2022-10-26T04:31:53;17.70;55.30
17399;DHT22;8817;48.170;8.592;2022-10-26T04:34:20;17.70;55.40
17399;DHT22;8817;48.170;8.592;2022-10-26T04:36:47;17.70;55.40
17399;DHT22;8817;48.170;8.592;2022-10-26T04:39:14;17.70;55.50
17399;DHT22;8817;48.170;8.592;2022-10-26T04:41:40;17.60;55.40
17399;DHT22;8817;48.170;8.592;2022-10-26T04:44:07;17.70;55.50
17399;DHT22;8817;48.170;8.592;2022-10-26T04:46:36;17.70;56.00
17399;DHT22;8817;48.170;8.592;2022-10-26T04:49:02;17.70;55.50
17399;DHT22;8817;48.170;8.592;2022-10-26T04:51:29;17.70;55.50
17399;DHT22;8817;48.170;8.592;2022-10-26T04:53:56;17.70;55.50
17399;DHT22;8817;48.170;8.592;2022-10-26T04:56:23;17.70;55.50
17399;DHT22;8817;48.170;8.592;2022-10-26T04:58:52;17.70;55.50
17399;DHT22;8817;48.170;8.592;2022-10-26T05:01:19;17.60;55.50
17399;DHT22;8817;48.170;8.592;2022-10-26T05:03:49;17.70;55.50
17399;DHT22;8817;48.170;8.592;2022-10-26T05:06:16;17.70;55.50
17399;DHT22;8817;48.170;8.592;2022-10-26T05:08:43;17.70;56.10
17399;DHT22;8817;48.170;8.592;2022-10-26T05:11:10;17.70;55.60
17399;DHT22;8817;48.170;8.592;2022-10-26T05:13:37;17.60;55.60
17399;DHT22;8817;48.170;8.592;2022-10-26T05:16:05;17.60;55.60
17399;DHT22;8817;48.170;8.592;2022-10-26T05:18:32;17.60;55.70
17399;DHT22;8817;48.170;8.592;2022-10-26T05:21:00;17.60;55.70
17399;DHT22;8817;48.170;8.592;2022-10-26T05:23:27;17.60;55.80
17399;DHT22;8817;48.170;8.592;2022-10-26T05:25:54;17.60;55.80
17399;DHT22;8817;48.170;8.592;2022-10-26T05:28:21;17.60;55.90
17399;DHT22;8817;48.170;8.592;2022-10-26T05:30:48;17.60;55.90
17399;DHT22;8817;48.170;8.592;2022-10-26T05:33:15;17.50;55.90
17399;DHT22;8817;48.170;8.592;2022-10-26T05:35:42;17.50;55.90
17399;DHT22;8817;48.170;8.592;2022-10-26T05:38:13;17.50;55.90
17399;DHT22;8817;48.170;8.592;2022-10-26T05:40:46;17.50;55.90
17399;DHT22;8817;48.170;8.592;2022-10-26T05:43:13;17.50;56.50
17399;DHT22;8817;48.170;8.592;2022-10-26T05:45:40;17.50;55.90
17399;DHT22;8817;48.170;8.592;2022-10-26T05:48:07;17.50;55.90
17399;DHT22;8817;48.170;8.592;2022-10-26T05:50:34;17.50;55.90
17399;DHT22;8817;48.170;8.592;2022-10-26T05:53:01;17.50;56.50
17399;DHT22;8817;48.170;8.592;2022-10-26T05:55:30;17.50;55.90
17399;DHT22;8817;48.170;8.592;2022-10-26T05:57:58;17.50;55.90
17399;DHT22;8817;48.170;8.592;2022-10-26T06:00:26;17.50;55.90
17399;DHT22;8817;48.170;8.592;2022-10-26T06:03:07;17.50;55.90
17399;DHT22;8817;48.170;8.592;2022-10-26T06:05:49;17.40;55.80
17399;DHT22;8817;48.170;8.592;2022-10-26T06:08:17;17.50;55.90
17399;DHT22;8817;48.170;8.592;2022-10-26T06:10:46;17.50;55.80
17399;DHT22;8817;48.170;8.592;2022-10-26T06:13:13;17.40;55.80
17399;DHT22;8817;48.170;8.592;2022-10-26T06:15:46;17.40;55.80
17399;DHT22;8817;48.170;8.592;2022-10-26T06:18:22;17.40;55.80
17399;DHT22;8817;48.170;8.592;2022-10-26T06:21:00;17.30;55.80
17399;DHT22;8817;48.170;8.592;2022-10-26T06:23:39;17.30;55.80
17399;DHT22;8817;48.170;8.592;2022-10-26T06:26:17;17.30;55.90
17399;DHT22;8817;48.170;8.592;2022-10-26T06:28:56;17.20;55.90
17399;DHT22;8817;48.170;8.592;2022-10-26T06:31:26;17.20;55.90
17399;DHT22;8817;48.170;8.592;2022-10-26T06:33:56;17.20;55.90
17399;DHT22;8817;48.170;8.592;2022-10-26T06:36:25;17.20;56.00
17399;DHT22;8817;48.170;8.592;2022-10-26T06:38:56;17.20;56.00
17399;DHT22;8817;48.170;8.592;2022-10-26T06:41:25;17.20;56.10
17399;DHT22;8817;48.170;8.592;2022-10-26T06:43:53;17.10;56.00
17399;DHT22;8817;48.170;8.592;2022-10-26T06:46:28;17.20;56.70
17399;DHT22;8817;48.170;8.592;2022-10-26T06:48:59;17.20;56.20
17399;DHT22;8817;48.170;8.592;2022-10-26T06:51:30;17.20;56.20
17399;DHT22;8817;48.170;8.592;2022-10-26T06:54:02;17.20;56.30
17399;DHT22;8817;48.170;8.592;2022-10-26T06:56:33;17.20;56.30
17399;DHT22;8817;48.170;8.592;2022-10-26T06:59:05;17.30;56.40
17399;DHT22;8817;48.170;8.592;2022-10-26T07:01:34;17.20;56.40
17399;DHT22;8817;48.170;8.592;2022-10-26T07:04:01;17.30;56.40
17399;DHT22;8817;48.170;8.592;2022-10-26T07:06:27;17.30;56.50
17399;DHT22;8817;48.170;8.592;2022-10-26T07:08:54;17.40;56.50
17399;DHT22;8817;48.170;8.592;2022-10-26T07:11:21;17.40;56.60
17399;DHT22;8817;48.170;8.592;2022-10-26T07:13:49;17.40;56.60
17399;DHT22;8817;48.170;8.592;2022-10-26T07:16:16;17.40;56.70
17399;DHT22;8817;48.170;8.592;2022-10-26T07:18:43;17.40;56.70
17399;DHT22;8817;48.170;8.592;2022-10-26T07:21:11;17.50;56.80
17399;DHT22;8817;48.170;8.592;2022-10-26T07:23:38;17.50;56.90
17399;DHT22;8817;48.170;8.592;2022-10-26T07:26:05;17.60;57.00
17399;DHT22;8817;48.170;8.592;2022-10-26T07:28:32;17.70;57.10
17399;DHT22;8817;48.170;8.592;2022-10-26T07:31:02;17.70;57.10
17399;DHT22;8817;48.170;8.592;2022-10-26T07:33:30;17.80;57.00
17399;DHT22;8817;48.170;8.592;2022-10-26T07:35:58;17.90;57.00
17399;DHT22;8817;48.170;8.592;2022-10-26T07:38:25;17.90;56.90
17399;DHT22;8817;48.170;8.592;2022-10-26T07:40:51;17.90;56.80
17399;DHT22;8817;48.170;8.592;2022-10-26T07:43:19;18.00;56.80
17399;DHT22;8817;48.170;8.592;2022-10-26T07:45:48;18.00;56.80
17399;DHT22;8817;48.170;8.592;2022-10-26T07:48:16;18.00;56.80
17399;DHT22;8817;48.170;8.592;2022-10-26T07:50:43;18.00;56.80
17399;DHT22;8817;48.170;8.592;2022-10-26T07:53:10;18.00;56.80
17399;DHT22;8817;48.170;8.592;2022-10-26T07:55:37;18.00;56.90
17399;DHT22;8817;48.170;8.592;2022-10-26T07:58:04;18.10;56.90
17399;DHT22;8817;48.170;8.592;2022-10-26T08:00:31;18.10;56.90
17399;DHT22;8817;48.170;8.592;2022-10-26T08:02:57;18.10;56.90
17399;DHT22;8817;48.170;8.592;2022-10-26T08:05:26;18.20;57.00
17399;DHT22;8817;48.170;8.592;2022-10-26T08:07:53;18.20;57.00
17399;DHT22;8817;48.170;8.592;2022-10-26T08:10:19;18.20;57.00
17399;DHT22;8817;48.170;8.592;2022-10-26T08:12:46;18.30;57.00
17399;DHT22;8817;48.170;8.592;2022-10-26T08:15:13;18.30;57.00
17399;DHT22;8817;48.170;8.592;2022-10-26T08:17:40;18.30;57.00
17399;DHT22;8817;48.170;8.592;2022-10-26T08:20:08;18.40;57.10
17399;DHT22;8817;48.170;8.592;2022-10-26T08:22:36;18.40;57.10
17399;DHT22;8817;48.170;8.592;2022-10-26T08:25:04;18.40;57.10
17399;DHT22;8817;48.170;8.592;2022-10-26T08:27:31;18.40;57.10
17399;DHT22;8817;48.170;8.592;2022-10-26T08:29:58;18.40;57.10
17399;DHT22;8817;48.170;8.592;2022-10-26T08:32:24;18.50;57.10
17399;DHT22;8817;48.170;8.592;2022-10-26T08:34:51;18.50;57.10
17399;DHT22;8817;48.170;8.592;2022-10-26T08:37:18;18.60;57.10
17399;DHT22;8817;48.170;8.592;2022-10-26T08:39:46;18.60;57.10
17399;DHT22;8817;48.170;8.592;2022-10-26T08:42:21;18.60;57.10
17399;DHT22;8817;48.170;8.592;2022-10-26T08:44:54;18.60;57.10
17399;DHT22;8817;48.170;8.592;2022-10-26T08:47:29;18.60;57.10
17399;DHT22;8817;48.170;8.592;2022-10-26T08:50:00;18.70;57.10
17399;DHT22;8817;48.170;8.592;2022-10-26T08:52:34;18.70;57.10
17399;DHT22;8817;48.170;8.592;2022-10-26T08:55:06;18.70;57.20
17399;DHT22;8817;48.170;8.592;2022-10-26T08:57:39;18.70;57.20
17399;DHT22;8817;48.170;8.592;2022-10-26T09:00:11;18.70;57.30
17399;DHT22;8817;48.170;8.592;2022-10-26T09:02:39;18.80;57.30
17399;DHT22;8817;48.170;8.592;2022-10-26T09:05:13;18.80;57.40
17399;DHT22;8817;48.170;8.592;2022-10-26T09:07:47;18.90;57.40
17399;DHT22;8817;48.170;8.592;2022-10-26T09:10:25;18.90;57.50
17399;DHT22;8817;48.170;8.592;2022-10-26T09:13:03;18.90;57.50
17399;DHT22;8817;48.170;8.592;2022-10-26T09:15:42;19.00;57.60
17399;DHT22;8817;48.170;8.592;2022-10-26T09:18:21;19.00;57.60
17399;DHT22;8817;48.170;8.592;2022-10-26T09:21:00;19.10;57.60
17399;DHT22;8817;48.170;8.592;2022-10-26T09:23:52;19.20;57.70
17399;DHT22;8817;48.170;8.592;2022-10-26T09:26:28;19.30;57.80
17399;DHT22;8817;48.170;8.592;2022-10-26T09:28:57;19.30;58.30
17399;DHT22;8817;48.170;8.592;2022-10-26T09:31:27;19.40;58.10
17399;DHT22;8817;48.170;8.592;2022-10-26T09:33:56;19.50;58.20
17399;DHT22;8817;48.170;8.592;2022-10-26T09:36:23;19.60;58.40
17399;DHT22;8817;48.170;8.592;2022-10-26T09:38:55;19.70;58.50
17399;DHT22;8817;48.170;8.592;2022-10-26T09:41:28;19.90;58.60
17399;DHT22;8817;48.170;8.592;2022-10-26T09:44:02;20.10;58.70
17399;DHT22;8817;48.170;8.592;2022-10-26T09:46:33;20.20;58.80
17399;DHT22;8817;48.170;8.592;2022-10-26T09:49:05;20.40;58.90
17399;DHT22;8817;48.170;8.592;2022-10-26T09:51:36;20.50;58.80
17399;DHT22;8817;48.170;8.592;2022-10-26T09:54:07;20.70;58.80
17399;DHT22;8817;48.170;8.592;2022-10-26T09:56:41;20.80;58.70
17399;DHT22;8817;48.170;8.592;2022-10-26T09:59:09;20.90;58.70
17399;DHT22;8817;48.170;8.592;2022-10-26T10:01:37;21.00;58.70
17399;DHT22;8817;48.170;8.592;2022-10-26T10:04:17;21.20;58.60
17399;DHT22;8817;48.170;8.592;2022-10-26T10:06:47;21.20;58.40
17399;DHT22;8817;48.170;8.592;2022-10-26T10:09:15;21.40;58.40
17399;DHT22;8817;48.170;8.592;2022-10-26T10:11:46;21.40;58.20
17399;DHT22;8817;48.170;8.592;2022-10-26T10:14:20;21.50;58.00
17399;DHT22;8817;48.170;8.592;2022-10-26T10:16:53;21.50;57.80
17399;DHT22;8817;48.170;8.592;2022-10-26T10:19:23;21.50;58.20
17399;DHT22;8817;48.170;8.592;2022-10-26T10:21:53;21.50;57.60
17399;DHT22;8817;48.170;8.592;2022-10-26T10:24:23;21.60;57.70
17399;DHT22;8817;48.170;8.592;2022-10-26T10:27:02;21.60;57.80
17399;DHT22;8817;48.170;8.592;2022-10-26T10:29:31;21.70;57.90
17399;DHT22;8817;48.170;8.592;2022-10-26T10:32:00;21.70;57.80
17399;DHT22;8817;48.170;8.592;2022-10-26T10:34:30;21.80;57.90
17399;DHT22;8817;48.170;8.592;2022-10-26T10:36:58;21.80;58.00
17399;DHT22;8817;48.170;8.592;2022-10-26T10:39:35;21.90;58.10
17399;DHT22;8817;48.170;8.592;2022-10-26T10:42:13;21.90;58.00
17399;DHT22;8817;48.170;8.592;2022-10-26T10:44:42;22.00;58.00
17399;DHT22;8817;48.170;8.592;2022-10-26T10:47:18;22.20;58.00
17399;DHT22;8817;48.170;8.592;2022-10-26T10:49:55;22.20;57.90
17399;DHT22;8817;48.170;8.592;2022-10-26T10:52:27;22.20;57.80
17399;DHT22;8817;48.170;8.592;2022-10-26T10:55:07;22.30;57.80
17399;DHT22;8817;48.170;8.592;2022-10-26T10:57:44;22.40;57.90
17399;DHT22;8817;48.170;8.592;2022-10-26T11:00:16;22.50;57.70
17399;DHT22;8817;48.170;8.592;2022-10-26T11:03:03;22.60;57.80
17399;DHT22;8817;48.170;8.592;2022-10-26T11:05:51;22.60;57.70
17399;DHT22;8817;48.170;8.592;2022-10-26T11:08:22;22.70;57.60
17399;DHT22;8817;48.170;8.592;2022-10-26T11:10:58;22.90;57.60
17399;DHT22;8817;48.170;8.592;2022-10-26T11:13:33;22.90;57.30
17399;DHT22;8817;48.170;8.592;2022-10-26T11:16:02;22.90;57.10
17399;DHT22;8817;48.170;8.592;2022-10-26T11:18:33;23.10;57.20
17399;DHT22;8817;48.170;8.592;2022-10-26T11:21:16;23.10;57.10
17399;DHT22;8817;48.170;8.592;2022-10-26T11:23:47;23.20;57.10
17399;DHT22;8817;48.170;8.592;2022-10-26T11:26:21;23.30;57.00
17399;DHT22;8817;48.170;8.592;2022-10-26T11:28:55;23.40;57.00
17399;DHT22;8817;48.170;8.592;2022-10-26T11:31:27;23.50;56.80
17399;DHT22;8817;48.170;8.592;2022-10-26T11:34:15;23.50;56.70
17399;DHT22;8817;48.170;8.592;2022-10-26T11:36:45;23.60;56.70
17399;DHT22;8817;48.170;8.592;2022-10-26T11:39:19;23.70;56.80
17399;DHT22;8817;48.170;8.592;2022-10-26T11:41:50;23.80;56.60
17399;DHT22;8817;48.170;8.592;2022-10-26T11:44:24;23.80;56.70
17399;DHT22;8817;48.170;8.592;2022-10-26T11:46:56;23.90;56.60
17399;DHT22;8817;48.170;8.592;2022-10-26T11:49:32;24.00;56.60
17399;DHT22;8817;48.170;8.592;2022-10-26T11:52:05;24.10;56.20
17399;DHT22;8817;48.170;8.592;2022-10-26T11:54:37;24.10;55.90
17399;DHT22;8817;48.170;8.592;2022-10-26T11:57:06;24.10;55.70
17399;DHT22;8817;48.170;8.592;2022-10-26T11:59:38;24.10;55.60
17399;DHT22;8817;48.170;8.592;2022-10-26T12:02:13;24.10;55.30
17399;DHT22;8817;48.170;8.592;2022-10-26T12:04:43;24.10;55.30
17399;DHT22;8817;48.170;8.592;2022-10-26T12:07:15;24.10;55.10
17399;DHT22;8817;48.170;8.592;2022-10-26T12:09:45;24.10;55.00
17399;DHT22;8817;48.170;8.592;2022-10-26T12:12:18;24.00;55.00
17399;DHT22;8817;48.170;8.592;2022-10-26T12:14:51;23.90;54.90
17399;DHT22;8817;48.170;8.592;2022-10-26T12:17:25;23.90;55.00
17399;DHT22;8817;48.170;8.592;2022-10-26T12:19:59;23.90;54.90
17399;DHT22;8817;48.170;8.592;2022-10-26T12:22:32;23.90;54.90
17399;DHT22;8817;48.170;8.592;2022-10-26T12:25:17;23.90;55.10
17399;DHT22;8817;48.170;8.592;2022-10-26T12:27:50;23.90;55.20
17399;DHT22;8817;48.170;8.592;2022-10-26T12:30:27;24.00;55.30
17399;DHT22;8817;48.170;8.592;2022-10-26T12:32:56;24.00;55.40
17399;DHT22;8817;48.170;8.592;2022-10-26T12:35:38;24.10;55.20
17399;DHT22;8817;48.170;8.592;2022-10-26T12:41:19;24.20;54.80
17399;DHT22;8817;48.170;8.592;2022-10-26T12:43:47;24.40;54.70
17399;DHT22;8817;48.170;8.592;2022-10-26T12:46:39;24.40;54.70
17399;DHT22;8817;48.170;8.592;2022-10-26T12:52:46;24.50;54.90
17399;DHT22;8817;48.170;8.592;2022-10-26T12:55:30;24.60;54.80
17399;DHT22;8817;48.170;8.592;2022-10-26T12:58:29;24.70;54.50
17399;DHT22;8817;48.170;8.592;2022-10-26T13:04:22;24.80;54.20
17399;DHT22;8817;48.170;8.592;2022-10-26T13:07:10;24.80;54.20
17399;DHT22;8817;48.170;8.592;2022-10-26T13:09:38;24.90;54.10
17399;DHT22;8817;48.170;8.592;2022-10-26T13:12:10;25.00;54.10
17399;DHT22;8817;48.170;8.592;2022-10-26T13:14:41;25.00;54.00
17399;DHT22;8817;48.170;8.592;2022-10-26T13:17:24;25.10;54.00
17399;DHT22;8817;48.170;8.592;2022-10-26T13:19:56;25.10;53.80
17399;DHT22;8817;48.170;8.592;2022-10-26T13:22:25;25.20;53.90
17399;DHT22;8817;48.170;8.592;2022-10-26T13:24:53;25.30;54.00
17399;DHT22;8817;48.170;8.592;2022-10-26T13:27:40;25.40;54.00
17399;DHT22;8817;48.170;8.592;2022-10-26T13:33:18;25.50;54.00
17399;DHT22;8817;48.170;8.592;2022-10-26T13:35:49;25.70;54.00
17399;DHT22;8817;48.170;8.592;2022-10-26T13:38:20;25.80;54.00
17399;DHT22;8817;48.170;8.592;2022-10-26T13:40:48;25.90;53.80
17399;DHT22;8817;48.170;8.592;2022-10-26T13:43:20;25.90;53.50
17399;DHT22;8817;48.170;8.592;2022-10-26T13:45:53;26.00;53.20
17399;DHT22;8817;48.170;8.592;2022-10-26T13:48:28;26.10;53.20
17399;DHT22;8817;48.170;8.592;2022-10-26T13:51:01;26.10;53.10
17399;DHT22;8817;48.170;8.592;2022-10-26T13:53:36;26.20;53.20
17399;DHT22;8817;48.170;8.592;2022-10-26T13:56:12;26.30;53.20
17399;DHT22;8817;48.170;8.592;2022-10-26T13:58:44;26.40;53.10
17399;DHT22;8817;48.170;8.592;2022-10-26T14:01:15;26.50;52.90
17399;DHT22;8817;48.170;8.592;2022-10-26T14:03:46;26.60;52.80
17399;DHT22;8817;48.170;8.592;2022-10-26T14:06:19;26.70;52.90
17399;DHT22;8817;48.170;8.592;2022-10-26T14:08:49;26.80;52.70
17399;DHT22;8817;48.170;8.592;2022-10-26T14:11:19;26.80;52.60
17399;DHT22;8817;48.170;8.592;2022-10-26T14:13:48;26.90;52.50
17399;DHT22;8817;48.170;8.592;2022-10-26T14:16:17;27.00;52.40
17399;DHT22;8817;48.170;8.592;2022-10-26T14:18:46;27.10;52.30
17399;DHT22;8817;48.170;8.592;2022-10-26T14:21:16;27.20;52.10
17399;DHT22;8817;48.170;8.592;2022-10-26T14:23:46;27.20;51.80
17399;DHT22;8817;48.170;8.592;2022-10-26T14:26:22;27.20;51.70
17399;DHT22;8817;48.170;8.592;2022-10-26T14:28:51;27.30;51.70
17399;DHT22;8817;48.170;8.592;2022-10-26T14:31:22;27.30;51.80
17399;DHT22;8817;48.170;8.592;2022-10-26T14:33:49;27.40;51.90
17399;DHT22;8817;48.170;8.592;2022-10-26T14:36:20;27.50;51.90
17399;DHT22;8817;48.170;8.592;2022-10-26T14:38:51;27.50;51.80
17399;DHT22;8817;48.170;8.592;2022-10-26T14:41:20;27.70;51.60
17399;DHT22;8817;48.170;8.592;2022-10-26T14:43:48;27.70;51.20
17399;DHT22;8817;48.170;8.592;2022-10-26T14:46:16;27.70;50.80
17399;DHT22;8817;48.170;8.592;2022-10-26T14:48:51;27.70;50.70
17399;DHT22;8817;48.170;8.592;2022-10-26T14:51:24;27.70;50.60
17399;DHT22;8817;48.170;8.592;2022-10-26T14:53:53;27.70;50.40
17399;DHT22;8817;48.170;8.592;2022-10-26T14:56:23;27.60;50.10
17399;DHT22;8817;48.170;8.592;2022-10-26T14:58:52;27.50;49.60
17399;DHT22;8817;48.170;8.592;2022-10-26T15:01:46;27.50;49.60
17399;DHT22;8817;48.170;8.592;2022-10-26T15:04:26;27.30;50.00
17399;DHT22;8817;48.170;8.592;2022-10-26T15:07:08;27.30;50.30
17399;DHT22;8817;48.170;8.592;2022-10-26T15:09:42;27.30;50.30
17399;DHT22;8817;48.170;8.592;2022-10-26T15:12:21;27.40;50.40
17399;DHT22;8817;48.170;8.592;2022-10-26T15:14:49;27.40;50.30
17399;DHT22;8817;48.170;8.592;2022-10-26T15:17:21;27.50;50.40
17399;DHT22;8817;48.170;8.592;2022-10-26T15:19:50;27.60;50.50
17399;DHT22;8817;48.170;8.592;2022-10-26T15:22:25;27.70;50.60
17399;DHT22;8817;48.170;8.592;2022-10-26T15:24:55;27.80;50.60
17399;DHT22;8817;48.170;8.592;2022-10-26T15:27:24;27.90;50.40
17399;DHT22;8817;48.170;8.592;2022-10-26T15:30:07;28.10;50.30
17399;DHT22;8817;48.170;8.592;2022-10-26T15:32:34;28.10;50.10
17399;DHT22;8817;48.170;8.592;2022-10-26T15:35:31;28.20;49.80
17399;DHT22;8817;48.170;8.592;2022-10-26T15:37:59;28.10;49.30
17399;DHT22;8817;48.170;8.592;2022-10-26T15:40:27;28.10;48.60
17399;DHT22;8817;48.170;8.592;2022-10-26T15:42:58;27.90;48.30
17399;DHT22;8817;48.170;8.592;2022-10-26T15:45:26;27.80;48.20
17399;DHT22;8817;48.170;8.592;2022-10-26T15:47:56;27.60;48.00
17399;DHT22;8817;48.170;8.592;2022-10-26T15:50:25;27.40;47.90
17399;DHT22;8817;48.170;8.592;2022-10-26T15:52:55;27.20;47.90
17399;DHT22;8817;48.170;8.592;2022-10-26T15:55:26;27.00;47.80
17399;DHT22;8817;48.170;8.592;2022-10-26T15:57:53;26.80;47.80
17399;DHT22;8817;48.170;8.592;2022-10-26T16:00:20;26.60;47.70
17399;DHT22;8817;48.170;8.592;2022-10-26T16:02:47;26.40;47.70
17399;DHT22;8817;48.170;8.592;2022-10-26T16:05:15;26.20;47.70
17399;DHT22;8817;48.170;8.592;2022-10-26T16:07:44;26.10;47.70
17399;DHT22;8817;48.170;8.592;2022-10-26T16:10:13;25.90;47.70
17399;DHT22;8817;48.170;8.592;2022-10-26T16:12:43;25.70;47.70
17399;DHT22;8817;48.170;8.592;2022-10-26T16:15:15;25.50;47.60
17399;DHT22;8817;48.170;8.592;2022-10-26T16:17:43;25.40;47.70
17399;DHT22;8817;48.170;8.592;2022-10-26T16:20:13;25.20;47.70
17399;DHT22;8817;48.170;8.592;2022-10-26T16:22:40;25.00;47.60